Rosevine, Texas
Current Conditions -  °F | °C
As of 1:35 AM on Saturday 29 Nov 2014 (Local Time) from KJAS Reporting Station
Overcast Overcast  
Wind Chill: 59°   Ceiling: 2800
Heat Index: 59°   Visibility: 10mi
Dew Point: 56°   Wind: 7mph
Humidity: 91%   Direction: 170°S
Pressure: 30.14"   Gusts: NA
Location:  31.3308°N, 94.0111°W
Report Text: KJAS 290735Z AUTO 17006KT 10SM BKN028 OVC033 15/13 A3014 RMK AO2 T01480134
Loading
Personal Weather Stations






























Interactive Weather Map New forecast layout! Learn more

10-Day Weather Forecast

Advertisements
Track Severe Weather on mobile